createdAt,value
2018-12-23T00:01:11.488Z,8.20
2018-12-23T00:03:39.456Z,8.10
2018-12-23T00:06:07.429Z,8.20
2018-12-23T00:08:35.294Z,8.20
2018-12-23T00:11:03.099Z,8.10
2018-12-23T00:13:30.924Z,8.10
2018-12-23T00:15:58.749Z,8.10
2018-12-23T00:18:26.880Z,8.10
2018-12-23T00:20:54.627Z,8.10
2018-12-23T00:23:22.698Z,8.10
2018-12-23T00:25:50.565Z,8.00
2018-12-23T00:28:18.431Z,8.00
2018-12-23T00:30:46.300Z,8.00
2018-12-23T00:33:14.167Z,7.90
2018-12-23T00:35:42.032Z,7.90
2018-12-23T00:38:09.899Z,7.90
2018-12-23T00:40:37.699Z,7.90
2018-12-23T00:43:05.530Z,7.90
2018-12-23T00:45:33.397Z,7.90
2018-12-23T00:48:01.265Z,7.90
2018-12-23T00:50:29.130Z,7.90
2018-12-23T00:52:56.997Z,8.00
2018-12-23T00:55:24.864Z,8.00
2018-12-23T00:57:52.731Z,8.10
2018-12-23T01:00:20.701Z,8.10
2018-12-23T01:02:48.671Z,8.10
2018-12-23T01:05:16.535Z,8.20
2018-12-23T01:07:44.505Z,8.20
2018-12-23T01:10:12.371Z,8.20
2018-12-23T01:12:40.238Z,8.20
2018-12-23T01:15:08.414Z,8.20
2018-12-23T01:17:36.281Z,8.10
2018-12-23T01:20:05.805Z,8.10
2018-12-23T01:22:33.651Z,8.00
2018-12-23T01:25:01.518Z,8.00
2018-12-23T01:27:29.385Z,8.00
2018-12-23T01:29:57.251Z,8.00
2018-12-23T01:32:25.118Z,7.90
2018-12-23T01:34:52.984Z,7.90
2018-12-23T01:37:20.854Z,7.90
2018-12-23T01:39:48.719Z,7.90
2018-12-23T01:42:16.688Z,7.90
2018-12-23T01:44:44.451Z,7.90
2018-12-23T01:47:12.318Z,7.90
2018-12-23T01:49:40.438Z,7.90
2018-12-23T01:52:08.257Z,8.00
2018-12-23T01:54:36.124Z,7.90
2018-12-23T01:57:04.127Z,8.00
2018-12-23T01:59:31.960Z,8.00
2018-12-23T02:01:59.830Z,8.00
2018-12-23T02:04:27.692Z,8.00
2018-12-23T02:06:55.513Z,8.00
2018-12-23T02:09:23.426Z,8.10
2018-12-23T02:11:53.906Z,8.10
2018-12-23T02:14:23.919Z,8.10
2018-12-23T02:16:53.353Z,8.10
2018-12-23T02:19:21.243Z,8.10
2018-12-23T02:21:49.007Z,8.10
2018-12-23T02:24:16.873Z,8.20
2018-12-23T02:26:44.740Z,8.10
2018-12-23T02:29:12.607Z,8.10
2018-12-23T02:31:40.472Z,8.10
2018-12-23T02:34:08.339Z,8.10
2018-12-23T02:36:36.206Z,8.00
2018-12-23T02:39:07.554Z,8.00
2018-12-23T02:41:35.422Z,8.00
2018-12-23T02:44:03.291Z,8.00
2018-12-23T02:46:31.157Z,8.00
2018-12-23T02:48:59.021Z,8.00
2018-12-23T02:51:26.888Z,8.10
2018-12-23T02:53:54.755Z,8.10
2018-12-23T02:56:22.631Z,8.10
2018-12-23T02:58:50.490Z,8.10
2018-12-23T03:01:18.355Z,8.00
2018-12-23T03:03:46.222Z,8.00
2018-12-23T03:06:14.088Z,7.90
2018-12-23T03:08:41.957Z,7.90
2018-12-23T03:11:09.719Z,7.90
2018-12-23T03:13:37.601Z,7.90
2018-12-23T03:16:05.454Z,8.00
2018-12-23T03:18:33.319Z,8.00
2018-12-23T03:21:01.186Z,8.00
2018-12-23T03:23:29.052Z,8.00
2018-12-23T03:25:56.919Z,7.90
2018-12-23T03:28:24.786Z,7.90
2018-12-23T03:30:52.654Z,7.90
2018-12-23T03:33:20.520Z,7.90
2018-12-23T03:35:48.386Z,7.90
2018-12-23T03:38:16.256Z,7.80
2018-12-23T03:40:44.124Z,7.80
2018-12-23T03:43:11.987Z,7.80
2018-12-23T03:45:39.853Z,7.80
2018-12-23T03:48:07.719Z,7.70
2018-12-23T03:50:35.588Z,7.70
2018-12-23T03:53:03.455Z,7.70
2018-12-23T03:55:31.325Z,7.70
2018-12-23T03:57:59.186Z,7.70
2018-12-23T04:00:27.053Z,7.70
2018-12-23T04:02:54.920Z,7.70
2018-12-23T04:05:22.788Z,7.70
2018-12-23T04:07:50.654Z,7.70
2018-12-23T04:10:18.418Z,7.70
2018-12-23T04:12:46.284Z,7.70
2018-12-23T04:15:14.152Z,7.70
2018-12-23T04:17:42.021Z,7.70
2018-12-23T04:20:10.708Z,7.60
2018-12-23T04:22:38.571Z,7.60
2018-12-23T04:25:06.438Z,7.70
2018-12-23T04:27:34.307Z,7.70
2018-12-23T04:30:02.170Z,7.70
2018-12-23T04:32:30.037Z,7.70
2018-12-23T04:34:57.906Z,7.70
2018-12-23T04:37:25.771Z,7.60
2018-12-23T04:39:53.637Z,7.60
2018-12-23T04:42:21.506Z,7.60
2018-12-23T04:44:49.371Z,7.70
2018-12-23T04:47:17.346Z,7.70
2018-12-23T04:49:45.208Z,7.70
2018-12-23T04:52:13.075Z,7.70
2018-12-23T04:54:41.044Z,7.70
2018-12-23T04:57:08.911Z,7.80
2018-12-23T04:59:36.778Z,7.70
2018-12-23T05:02:04.650Z,7.80
2018-12-23T05:04:32.510Z,7.70
2018-12-23T05:07:00.376Z,7.80
2018-12-23T05:09:28.243Z,7.80
2018-12-23T05:11:56.111Z,7.80
2018-12-23T05:14:23.980Z,7.80
2018-12-23T05:16:51.743Z,7.80
2018-12-23T05:19:19.607Z,7.80
2018-12-23T05:21:47.475Z,7.80
2018-12-23T05:24:15.342Z,7.90
2018-12-23T05:26:43.106Z,7.90
2018-12-23T05:29:10.973Z,7.90
2018-12-23T05:31:38.841Z,7.90
2018-12-23T05:34:06.706Z,7.90
2018-12-23T05:36:34.470Z,7.80
2018-12-23T05:39:02.337Z,7.90
2018-12-23T05:41:30.204Z,7.90
2018-12-23T05:43:58.074Z,7.90
2018-12-23T05:46:25.939Z,7.80
2018-12-23T05:48:53.804Z,7.80
2018-12-23T05:51:21.671Z,7.80
2018-12-23T05:53:49.494Z,7.80
2018-12-23T05:56:17.302Z,7.80
2018-12-23T05:58:45.168Z,7.80
2018-12-23T06:01:13.035Z,7.90
2018-12-23T06:03:40.835Z,7.80
2018-12-23T06:06:08.666Z,7.90
2018-12-23T06:08:36.533Z,7.80
2018-12-23T06:11:04.401Z,7.80
2018-12-23T06:13:32.267Z,7.90
2018-12-23T06:16:00.031Z,7.90
2018-12-23T06:18:27.833Z,7.90
2018-12-23T06:20:55.662Z,7.80
2018-12-23T06:23:23.530Z,7.80
2018-12-23T06:25:51.396Z,7.80
2018-12-23T06:28:19.261Z,7.80
2018-12-23T06:30:47.128Z,7.80
2018-12-23T06:33:14.996Z,7.80
2018-12-23T06:35:42.865Z,7.80
2018-12-23T06:38:10.728Z,7.80
2018-12-23T06:40:38.595Z,7.70
2018-12-23T06:43:06.461Z,7.70
2018-12-23T06:45:34.429Z,7.70
2018-12-23T06:48:02.298Z,7.70
2018-12-23T06:50:30.164Z,7.60
2018-12-23T06:52:57.962Z,7.60
2018-12-23T06:55:25.795Z,7.70
2018-12-23T06:57:53.662Z,7.70
2018-12-23T07:00:21.529Z,7.70
2018-12-23T07:02:49.395Z,7.80
2018-12-23T07:05:17.267Z,7.70
2018-12-23T07:07:45.129Z,7.80
2018-12-23T07:10:12.925Z,7.80
2018-12-23T07:12:40.778Z,7.80
2018-12-23T07:15:08.524Z,7.90
2018-12-23T07:17:36.392Z,7.90
2018-12-23T07:20:05.485Z,7.90
2018-12-23T07:22:33.354Z,7.90
2018-12-23T07:25:01.219Z,7.90
2018-12-23T07:27:29.086Z,7.90
2018-12-23T07:29:56.954Z,7.90
2018-12-23T07:32:24.819Z,7.90
2018-12-23T07:34:52.687Z,8.00
2018-12-23T07:37:27.403Z,8.00
2018-12-23T07:39:50.467Z,8.10
2018-12-23T07:42:18.335Z,8.20
2018-12-23T07:44:46.197Z,8.20
2018-12-23T07:47:14.068Z,8.30
2018-12-23T07:49:41.935Z,8.40
2018-12-23T07:52:09.907Z,8.50
2018-12-23T07:54:37.770Z,8.60
2018-12-23T07:57:05.640Z,8.80
2018-12-23T07:59:33.505Z,8.90
2018-12-23T08:02:01.371Z,8.90
2018-12-23T08:04:29.238Z,9.00
2018-12-23T08:06:57.104Z,9.00
2018-12-23T08:09:24.970Z,9.10
2018-12-23T08:11:52.771Z,9.20
2018-12-23T08:14:20.602Z,9.20
2018-12-23T08:16:48.571Z,9.30
2018-12-23T08:19:16.439Z,9.40
2018-12-23T08:21:44.306Z,9.60
2018-12-23T08:24:14.171Z,10.20
2018-12-23T08:26:43.726Z,10.80
2018-12-23T08:29:13.230Z,11.20
2018-12-23T08:31:41.505Z,11.40
2018-12-23T08:34:09.373Z,11.70
2018-12-23T08:36:37.239Z,12.10
2018-12-23T08:39:05.824Z,12.60
2018-12-23T08:41:33.793Z,12.90
2018-12-23T08:44:01.760Z,13.10
2018-12-23T08:46:29.627Z,13.30
2018-12-23T08:48:57.494Z,13.40
2018-12-23T08:51:25.937Z,13.60
2018-12-23T08:53:53.740Z,13.70
2018-12-23T08:56:21.609Z,13.90
2018-12-23T08:58:49.473Z,14.40
2018-12-23T09:01:17.444Z,14.20
2018-12-23T09:03:45.309Z,14.10
2018-12-23T09:06:13.176Z,13.80
2018-12-23T09:08:41.042Z,14.00
2018-12-23T09:11:09.027Z,14.10
2018-12-23T09:13:36.879Z,13.80
2018-12-23T09:16:04.747Z,13.50
2018-12-23T09:18:32.513Z,13.10
2018-12-23T09:21:00.376Z,12.80
2018-12-23T09:23:28.242Z,12.60
2018-12-23T09:25:56.109Z,12.60
2018-12-23T09:28:23.978Z,12.50
2018-12-23T09:30:52.152Z,12.40
2018-12-23T09:33:20.129Z,12.10
2018-12-23T09:35:47.926Z,12.10
2018-12-23T09:38:16.263Z,12.40
2018-12-23T09:40:44.343Z,12.60
2018-12-23T09:43:12.201Z,12.70
2018-12-23T09:45:40.071Z,12.90
2018-12-23T09:48:08.034Z,12.80
2018-12-23T09:50:35.903Z,12.80
2018-12-23T09:53:03.770Z,12.70
2018-12-23T09:55:31.635Z,12.80
2018-12-23T09:57:59.476Z,12.70
2018-12-23T10:00:27.510Z,12.40
2018-12-23T10:02:55.340Z,12.30
2018-12-23T10:05:24.475Z,12.20
2018-12-23T10:07:52.199Z,12.10
2018-12-23T10:10:28.187Z,11.90
2018-12-23T10:12:49.674Z,11.90
2018-12-23T10:15:17.542Z,11.90
2018-12-23T10:19:00.162Z,11.90
2018-12-23T10:21:29.259Z,11.80
2018-12-23T10:23:58.250Z,11.70
2018-12-23T10:26:27.345Z,11.70
2018-12-23T10:29:32.752Z,11.80
2018-12-23T10:32:01.708Z,11.80
2018-12-23T10:34:30.676Z,11.90
2018-12-23T10:36:59.774Z,11.90
2018-12-23T10:39:28.766Z,11.90
2018-12-23T10:41:57.759Z,11.90
2018-12-23T10:44:26.753Z,11.90
2018-12-23T10:46:55.847Z,11.70
2018-12-23T10:49:24.840Z,11.60
2018-12-23T10:51:53.936Z,11.50
2018-12-23T10:54:23.075Z,11.40
2018-12-23T10:56:52.638Z,11.30
2018-12-23T10:59:21.631Z,11.30
2018-12-23T11:01:50.625Z,11.30
2018-12-23T11:04:19.617Z,11.40
2018-12-23T11:06:49.025Z,11.20
2018-12-23T11:09:18.017Z,11.30
2018-12-23T11:11:47.006Z,11.30
2018-12-23T11:14:16.011Z,11.40
2018-12-23T11:16:45.408Z,11.30
2018-12-23T11:19:14.356Z,11.30
2018-12-23T11:21:43.901Z,11.30
2018-12-23T11:24:12.917Z,11.40
2018-12-23T11:26:41.887Z,11.30
2018-12-23T11:29:11.186Z,11.30
2018-12-23T11:31:40.444Z,11.20
2018-12-23T11:34:09.399Z,11.10
2018-12-23T11:36:38.462Z,11.10
2018-12-23T11:39:08.442Z,11.10
2018-12-23T11:41:37.396Z,11.10
2018-12-23T11:44:06.345Z,11.20
2018-12-23T11:46:35.445Z,11.10
2018-12-23T11:49:04.395Z,11.10
2018-12-23T11:51:33.343Z,11.10
2018-12-23T11:54:02.336Z,11.10
2018-12-23T11:56:31.341Z,11.00
2018-12-23T11:59:00.334Z,11.00
2018-12-23T12:01:29.329Z,11.00
2018-12-23T12:03:58.319Z,11.00
2018-12-23T12:06:27.415Z,11.00
2018-12-23T12:08:56.408Z,11.00
2018-12-23T12:11:25.407Z,11.00
2018-12-23T12:13:54.498Z,11.10
2018-12-23T12:16:23.602Z,11.00
2018-12-23T12:18:53.323Z,11.10
2018-12-23T12:21:22.472Z,11.10
2018-12-23T12:23:51.415Z,11.00
2018-12-23T12:26:20.367Z,11.00
2018-12-23T12:28:49.359Z,10.90
2018-12-23T12:31:18.312Z,10.80
2018-12-23T12:33:47.365Z,10.80
2018-12-23T12:36:16.462Z,10.80
2018-12-23T12:38:52.072Z,10.80
2018-12-23T12:41:16.245Z,10.70
2018-12-23T12:43:45.315Z,10.70
2018-12-23T12:46:14.377Z,10.60
2018-12-23T12:48:43.476Z,10.60
2018-12-23T12:51:12.467Z,10.60
2018-12-23T12:53:41.530Z,10.60
2018-12-23T12:56:10.576Z,10.60
2018-12-23T12:58:39.549Z,10.60
2018-12-23T13:01:08.488Z,10.60
2018-12-23T13:03:37.490Z,10.60
2018-12-23T13:06:06.468Z,10.60
2018-12-23T13:08:35.399Z,10.60
2018-12-23T13:11:04.392Z,10.60
2018-12-23T13:13:33.343Z,10.60
2018-12-23T13:16:02.285Z,10.50
2018-12-23T13:18:31.292Z,10.60
2018-12-23T13:21:00.289Z,10.60
2018-12-23T13:23:29.378Z,10.60
2018-12-23T13:25:58.476Z,10.60
2018-12-23T13:28:27.477Z,10.50
2018-12-23T13:30:56.562Z,10.50
2018-12-23T13:33:25.558Z,10.40
2018-12-23T13:35:54.817Z,10.40
2018-12-23T13:38:23.952Z,10.40
2018-12-23T13:41:02.067Z,10.40
2018-12-23T13:43:40.048Z,10.30
2018-12-23T13:46:20.675Z,10.30
2018-12-23T13:49:14.404Z,10.30
2018-12-23T13:51:52.199Z,10.20
2018-12-23T13:54:48.067Z,10.20
2018-12-23T13:57:20.087Z,10.10
2018-12-23T14:00:24.309Z,10.00
2018-12-23T14:03:05.485Z,10.00
2018-12-23T14:05:57.211Z,10.00
2018-12-23T14:08:41.361Z,10.00
2018-12-23T14:11:34.314Z,10.00
2018-12-23T14:14:03.410Z,9.90
2018-12-23T14:16:32.403Z,9.80
2018-12-23T14:19:01.548Z,9.80
2018-12-23T14:21:30.696Z,9.80
2018-12-23T14:23:59.792Z,9.80
2018-12-23T14:26:28.880Z,9.90
2018-12-23T14:28:58.086Z,9.90
2018-12-23T14:31:27.284Z,9.80
2018-12-23T14:33:56.482Z,9.80
2018-12-23T14:36:25.589Z,9.80
2018-12-23T14:38:55.609Z,9.80
2018-12-23T14:41:25.405Z,9.70
2018-12-23T14:43:55.883Z,9.80
2018-12-23T14:46:25.441Z,9.80
2018-12-23T14:48:54.542Z,9.70
2018-12-23T14:51:23.483Z,9.70
2018-12-23T14:53:52.544Z,9.70
2018-12-23T14:56:21.660Z,9.60
2018-12-23T14:58:50.818Z,9.60
2018-12-23T15:01:19.807Z,9.60
2018-12-23T15:03:49.208Z,9.60
2018-12-23T15:06:18.236Z,9.60
2018-12-23T15:08:47.220Z,9.60
2018-12-23T15:11:16.346Z,9.60
2018-12-23T15:13:45.313Z,9.50
2018-12-23T15:16:14.521Z,9.50
2018-12-23T15:18:43.561Z,9.50
2018-12-23T15:21:12.734Z,9.50
2018-12-23T15:23:41.778Z,9.50
2018-12-23T15:26:10.723Z,9.50
2018-12-23T15:28:39.820Z,9.50
2018-12-23T15:31:08.855Z,9.50
2018-12-23T15:33:37.881Z,9.50
2018-12-23T15:36:06.996Z,9.50
2018-12-23T15:38:35.984Z,9.40
2018-12-23T15:41:05.025Z,9.40
2018-12-23T15:43:34.007Z,9.40
2018-12-23T15:46:03.093Z,9.40
2018-12-23T15:48:32.175Z,9.30
2018-12-23T15:51:01.198Z,9.40
2018-12-23T15:53:30.220Z,9.30
2018-12-23T15:55:59.184Z,9.40
2018-12-23T15:58:28.174Z,9.30
2018-12-23T16:00:57.124Z,9.30
2018-12-23T16:03:26.076Z,9.30
2018-12-23T16:05:55.067Z,9.30
2018-12-23T16:08:24.023Z,9.30
2018-12-23T16:10:52.984Z,9.40
2018-12-23T16:13:22.096Z,9.40
2018-12-23T16:15:51.024Z,9.40
2018-12-23T16:18:19.974Z,9.40
2018-12-23T16:20:49.063Z,9.40
2018-12-23T16:23:18.017Z,9.40
2018-12-23T16:25:46.981Z,9.40
2018-12-23T16:28:15.976Z,9.40
2018-12-23T16:30:44.934Z,9.40
2018-12-23T16:33:13.883Z,9.40
2018-12-23T16:35:42.864Z,9.50
2018-12-23T16:38:11.814Z,9.50
2018-12-23T16:40:40.763Z,9.50
2018-12-23T16:43:09.739Z,9.50
2018-12-23T16:45:38.986Z,9.50
2018-12-23T16:48:07.927Z,9.50
2018-12-23T16:50:36.928Z,9.50
2018-12-23T16:53:05.977Z,9.50
2018-12-23T16:55:34.918Z,9.50
2018-12-23T16:58:03.909Z,9.50
2018-12-23T17:00:32.853Z,9.50
2018-12-23T17:03:01.904Z,9.50
2018-12-23T17:05:30.903Z,9.50
2018-12-23T17:07:59.954Z,9.50
2018-12-23T17:10:29.005Z,9.50
2018-12-23T17:12:58.034Z,9.50
2018-12-23T17:15:27.008Z,9.50
2018-12-23T17:17:56.043Z,9.40
2018-12-23T17:20:25.073Z,9.40
2018-12-23T17:22:54.267Z,9.40
2018-12-23T17:25:23.343Z,9.40
2018-12-23T17:27:54.116Z,9.40
2018-12-23T17:30:23.177Z,9.30
2018-12-23T17:32:52.129Z,9.30
2018-12-23T17:35:21.231Z,9.30
2018-12-23T17:37:50.193Z,9.20
2018-12-23T17:40:19.269Z,9.20
2018-12-23T17:42:48.257Z,9.20
2018-12-23T17:45:17.348Z,9.10
2018-12-23T17:47:46.343Z,9.10
2018-12-23T17:50:15.384Z,9.10
2018-12-23T17:52:44.434Z,9.10
2018-12-23T17:55:13.530Z,9.10
2018-12-23T17:57:42.727Z,9.10
2018-12-23T18:00:13.257Z,9.00
2018-12-23T18:02:42.353Z,9.00
2018-12-23T18:05:11.346Z,9.00
2018-12-23T18:07:40.339Z,9.00
2018-12-23T18:10:09.435Z,9.00
2018-12-23T18:12:38.530Z,9.00
2018-12-23T18:15:07.982Z,9.00
2018-12-23T18:17:37.028Z,8.90
2018-12-23T18:20:07.567Z,8.90
2018-12-23T18:22:36.515Z,8.90
2018-12-23T18:25:06.163Z,8.90
2018-12-23T18:27:35.151Z,8.90
2018-12-23T18:30:04.201Z,8.90
2018-12-23T18:32:33.145Z,8.90
2018-12-23T18:35:02.147Z,8.90
2018-12-23T18:37:31.085Z,9.00
2018-12-23T18:40:00.046Z,8.90
2018-12-23T18:42:29.033Z,8.90
2018-12-23T18:44:57.980Z,8.80
2018-12-23T18:47:26.940Z,8.80
2018-12-23T18:49:55.932Z,8.70
2018-12-23T18:52:24.882Z,8.70
2018-12-23T18:54:53.842Z,8.70
2018-12-23T18:57:22.838Z,8.60
2018-12-23T18:59:51.859Z,8.60
2018-12-23T19:02:20.954Z,8.60
2018-12-23T19:04:49.943Z,8.60
2018-12-23T19:07:18.941Z,8.60
2018-12-23T19:09:48.601Z,8.60
2018-12-23T19:12:48.900Z,8.50
2018-12-23T19:15:41.540Z,8.50
2018-12-23T19:18:22.113Z,8.40
2018-12-23T19:21:08.930Z,8.40
2018-12-23T19:23:55.765Z,8.40
2018-12-23T19:26:46.960Z,8.30
2018-12-23T19:29:40.224Z,8.30
2018-12-23T19:32:24.054Z,8.30
2018-12-23T19:35:28.620Z,8.30
2018-12-23T19:38:21.505Z,8.30
2018-12-23T19:41:15.559Z,8.30
2018-12-23T19:43:47.490Z,8.20
2018-12-23T19:46:22.244Z,8.20
2018-12-23T19:49:17.984Z,8.30
2018-12-23T19:51:55.430Z,8.20
2018-12-23T19:54:51.431Z,8.20
2018-12-23T19:57:26.010Z,8.20
2018-12-23T20:00:03.992Z,8.10
2018-12-23T20:02:47.989Z,8.10
2018-12-23T20:05:50.359Z,8.10
2018-12-23T20:08:21.970Z,8.10
2018-12-23T20:11:08.622Z,8.10
2018-12-23T21:19:03.157Z,8.10
2018-12-23T21:21:43.611Z,7.50
2018-12-23T21:24:36.264Z,7.50
2018-12-23T21:27:13.859Z,7.50
2018-12-23T21:29:45.824Z,7.50
2018-12-23T21:32:17.784Z,7.60
2018-12-23T21:35:23.544Z,7.60
2018-12-23T21:38:12.223Z,7.60
2018-12-23T21:40:52.757Z,7.60
2018-12-23T21:43:27.600Z,7.60
2018-12-23T21:46:02.316Z,7.50
2018-12-23T21:48:55.395Z,7.60
2018-12-23T21:51:51.021Z,7.50
2018-12-23T21:54:25.835Z,7.50
2018-12-23T21:57:09.732Z,7.50
2018-12-23T21:59:50.335Z,7.50
2018-12-23T22:02:38.533Z,7.50
2018-12-23T22:05:34.737Z,7.50
2018-12-23T22:08:15.780Z,7.50
2018-12-23T22:10:53.700Z,7.40
2018-12-23T22:13:24.439Z,7.40
2018-12-23T22:15:53.401Z,7.40
2018-12-23T22:18:22.440Z,7.30
2018-12-23T22:20:51.439Z,7.30
2018-12-23T22:23:20.436Z,7.20
2018-12-23T22:25:49.490Z,7.20
2018-12-23T22:28:18.408Z,7.10
2018-12-23T22:30:47.350Z,7.10
2018-12-23T22:33:16.341Z,7.00
2018-12-23T22:35:45.293Z,7.00
2018-12-23T22:38:14.234Z,6.90
2018-12-23T22:40:43.220Z,6.90
2018-12-23T22:43:12.168Z,7.00
2018-12-23T22:45:41.115Z,6.90
2018-12-23T22:48:10.104Z,6.90
2018-12-23T22:50:39.045Z,6.90
2018-12-23T22:53:07.999Z,6.90
2018-12-23T22:55:36.992Z,6.90
2018-12-23T22:58:05.936Z,6.90
2018-12-23T23:00:35.391Z,6.90
2018-12-23T23:03:08.912Z,6.90
2018-12-23T23:05:35.064Z,6.90
2018-12-23T23:08:04.021Z,7.00
2018-12-23T23:10:33.006Z,7.00
2018-12-23T23:13:01.960Z,7.00
2018-12-23T23:15:30.911Z,7.00
2018-12-23T23:17:59.891Z,7.10
2018-12-23T23:20:28.853Z,7.00
2018-12-23T23:22:57.998Z,7.00
2018-12-23T23:25:27.367Z,7.10
2018-12-23T23:27:56.359Z,7.00
2018-12-23T23:30:25.660Z,7.10
2018-12-23T23:32:54.757Z,7.10
2018-12-23T23:35:23.851Z,7.10
2018-12-23T23:37:53.458Z,7.10
2018-12-23T23:40:22.554Z,7.10
2018-12-23T23:42:52.771Z,7.10
2018-12-23T23:45:22.383Z,7.10
2018-12-23T23:47:51.903Z,7.10
2018-12-23T23:50:20.969Z,7.20
2018-12-23T23:52:50.079Z,7.20
2018-12-23T23:55:19.073Z,7.10
2018-12-23T23:57:48.170Z,7.10
